sensor_id;sensor_type;location;lat;lon;timestamp;temperature;humidity
48579;DHT22;34357;51.948;6.132;2024-03-07T00:00:35;4.40;92.00
48579;DHT22;34357;51.948;6.132;2024-03-07T00:03:01;4.40;92.10
48579;DHT22;34357;51.948;6.132;2024-03-07T00:05:27;4.40;92.10
48579;DHT22;34357;51.948;6.132;2024-03-07T00:07:53;4.30;92.20
48579;DHT22;34357;51.948;6.132;2024-03-07T00:10:19;4.30;92.20
48579;DHT22;34357;51.948;6.132;2024-03-07T00:12:48;4.30;92.20
48579;DHT22;34357;51.948;6.132;2024-03-07T00:15:14;4.20;92.20
48579;DHT22;34357;51.948;6.132;2024-03-07T00:17:42;4.20;92.20
48579;DHT22;34357;51.948;6.132;2024-03-07T00:20:09;4.20;92.30
48579;DHT22;34357;51.948;6.132;2024-03-07T00:22:40;4.20;92.30
48579;DHT22;34357;51.948;6.132;2024-03-07T00:25:07;4.10;92.40
48579;DHT22;34357;51.948;6.132;2024-03-07T00:27:35;4.10;92.40
48579;DHT22;34357;51.948;6.132;2024-03-07T00:30:02;4.10;92.40
48579;DHT22;34357;51.948;6.132;2024-03-07T00:32:28;4.00;92.40
48579;DHT22;34357;51.948;6.132;2024-03-07T00:34:56;3.90;92.40
48579;DHT22;34357;51.948;6.132;2024-03-07T00:37:23;3.90;92.40
48579;DHT22;34357;51.948;6.132;2024-03-07T00:39:50;3.90;92.50
48579;DHT22;34357;51.948;6.132;2024-03-07T00:42:16;3.90;92.60
48579;DHT22;34357;51.948;6.132;2024-03-07T00:44:42;3.90;92.60
48579;DHT22;34357;51.948;6.132;2024-03-07T00:47:09;3.80;92.60
48579;DHT22;34357;51.948;6.132;2024-03-07T00:49:35;3.80;92.60
48579;DHT22;34357;51.948;6.132;2024-03-07T00:52:02;3.80;92.70
48579;DHT22;34357;51.948;6.132;2024-03-07T00:54:27;3.80;92.70
48579;DHT22;34357;51.948;6.132;2024-03-07T00:56:53;3.70;92.70
48579;DHT22;34357;51.948;6.132;2024-03-07T00:59:20;3.70;92.70
48579;DHT22;34357;51.948;6.132;2024-03-07T01:01:46;3.70;92.80
48579;DHT22;34357;51.948;6.132;2024-03-07T01:04:12;3.70;92.80
48579;DHT22;34357;51.948;6.132;2024-03-07T01:06:38;3.70;92.90
48579;DHT22;34357;51.948;6.132;2024-03-07T01:09:04;3.70;92.90
48579;DHT22;34357;51.948;6.132;2024-03-07T01:11:30;3.70;92.90
48579;DHT22;34357;51.948;6.132;2024-03-07T01:13:55;3.70;93.00
48579;DHT22;34357;51.948;6.132;2024-03-07T01:16:25;3.70;93.00
48579;DHT22;34357;51.948;6.132;2024-03-07T01:18:51;3.70;92.90
48579;DHT22;34357;51.948;6.132;2024-03-07T01:21:16;3.70;93.00
48579;DHT22;34357;51.948;6.132;2024-03-07T01:23:42;3.70;93.00
48579;DHT22;34357;51.948;6.132;2024-03-07T01:26:08;3.70;93.00
48579;DHT22;34357;51.948;6.132;2024-03-07T01:28:34;3.70;93.00
48579;DHT22;34357;51.948;6.132;2024-03-07T01:30:59;3.60;93.00
48579;DHT22;34357;51.948;6.132;2024-03-07T01:33:25;3.60;93.00
48579;DHT22;34357;51.948;6.132;2024-03-07T01:35:51;3.60;93.00
48579;DHT22;34357;51.948;6.132;2024-03-07T01:38:17;3.70;93.00
48579;DHT22;34357;51.948;6.132;2024-03-07T01:40:44;3.80;93.10
48579;DHT22;34357;51.948;6.132;2024-03-07T01:43:10;3.70;93.10
48579;DHT22;34357;51.948;6.132;2024-03-07T01:45:36;3.80;93.10
48579;DHT22;34357;51.948;6.132;2024-03-07T01:48:08;3.80;93.10
48579;DHT22;34357;51.948;6.132;2024-03-07T01:50:35;3.70;93.10
48579;DHT22;34357;51.948;6.132;2024-03-07T01:53:05;3.80;93.10
48579;DHT22;34357;51.948;6.132;2024-03-07T01:55:32;3.80;93.10
48579;DHT22;34357;51.948;6.132;2024-03-07T01:58:02;3.90;93.00
48579;DHT22;34357;51.948;6.132;2024-03-07T02:00:30;3.90;93.00
48579;DHT22;34357;51.948;6.132;2024-03-07T02:02:56;3.90;92.90
48579;DHT22;34357;51.948;6.132;2024-03-07T02:05:22;3.90;92.90
48579;DHT22;34357;51.948;6.132;2024-03-07T02:07:49;3.90;93.00
48579;DHT22;34357;51.948;6.132;2024-03-07T02:10:15;3.90;92.90
48579;DHT22;34357;51.948;6.132;2024-03-07T02:12:42;4.00;93.00
48579;DHT22;34357;51.948;6.132;2024-03-07T02:15:08;4.00;92.90
48579;DHT22;34357;51.948;6.132;2024-03-07T02:17:35;4.00;92.90
48579;DHT22;34357;51.948;6.132;2024-03-07T02:20:01;4.10;92.90
48579;DHT22;34357;51.948;6.132;2024-03-07T02:22:29;4.10;92.90
48579;DHT22;34357;51.948;6.132;2024-03-07T02:24:55;4.10;92.80
48579;DHT22;34357;51.948;6.132;2024-03-07T02:27:21;4.10;92.80
48579;DHT22;34357;51.948;6.132;2024-03-07T02:29:46;4.10;92.80
48579;DHT22;34357;51.948;6.132;2024-03-07T02:32:12;4.20;92.80
48579;DHT22;34357;51.948;6.132;2024-03-07T02:34:38;4.20;92.70
48579;DHT22;34357;51.948;6.132;2024-03-07T02:37:04;4.20;92.60
48579;DHT22;34357;51.948;6.132;2024-03-07T02:39:30;4.10;92.50
48579;DHT22;34357;51.948;6.132;2024-03-07T02:41:56;4.10;92.50
48579;DHT22;34357;51.948;6.132;2024-03-07T02:44:22;4.00;92.40
48579;DHT22;34357;51.948;6.132;2024-03-07T02:46:47;3.90;92.40
48579;DHT22;34357;51.948;6.132;2024-03-07T02:49:14;3.90;92.40
48579;DHT22;34357;51.948;6.132;2024-03-07T02:51:40;3.80;92.40
48579;DHT22;34357;51.948;6.132;2024-03-07T02:54:08;3.80;92.40
48579;DHT22;34357;51.948;6.132;2024-03-07T02:56:34;3.70;92.50
48579;DHT22;34357;51.948;6.132;2024-03-07T02:58:59;3.70;92.50
48579;DHT22;34357;51.948;6.132;2024-03-07T03:01:25;3.60;92.60
48579;DHT22;34357;51.948;6.132;2024-03-07T03:03:51;3.60;92.70
48579;DHT22;34357;51.948;6.132;2024-03-07T03:06:17;3.60;92.70
48579;DHT22;34357;51.948;6.132;2024-03-07T03:08:46;3.60;92.70
48579;DHT22;34357;51.948;6.132;2024-03-07T03:11:12;3.50;92.80
48579;DHT22;34357;51.948;6.132;2024-03-07T03:13:40;3.50;92.80
48579;DHT22;34357;51.948;6.132;2024-03-07T03:16:06;3.60;92.80
48579;DHT22;34357;51.948;6.132;2024-03-07T03:18:35;3.50;92.90
48579;DHT22;34357;51.948;6.132;2024-03-07T03:21:01;3.50;92.90
48579;DHT22;34357;51.948;6.132;2024-03-07T03:23:28;3.50;92.90
48579;DHT22;34357;51.948;6.132;2024-03-07T03:25:54;3.40;92.90
48579;DHT22;34357;51.948;6.132;2024-03-07T03:28:21;3.40;93.00
48579;DHT22;34357;51.948;6.132;2024-03-07T03:30:48;3.40;92.90
48579;DHT22;34357;51.948;6.132;2024-03-07T03:33:14;3.40;93.00
48579;DHT22;34357;51.948;6.132;2024-03-07T03:35:40;3.30;92.90
48579;DHT22;34357;51.948;6.132;2024-03-07T03:38:07;3.30;92.90
48579;DHT22;34357;51.948;6.132;2024-03-07T03:40:33;3.30;93.00
48579;DHT22;34357;51.948;6.132;2024-03-07T03:43:00;3.20;93.00
48579;DHT22;34357;51.948;6.132;2024-03-07T03:45:26;3.20;93.00
48579;DHT22;34357;51.948;6.132;2024-03-07T03:47:52;3.20;93.00
48579;DHT22;34357;51.948;6.132;2024-03-07T03:50:18;3.10;93.00
48579;DHT22;34357;51.948;6.132;2024-03-07T03:52:44;3.10;93.10
48579;DHT22;34357;51.948;6.132;2024-03-07T03:55:10;3.10;93.20
48579;DHT22;34357;51.948;6.132;2024-03-07T03:57:39;3.10;93.20
48579;DHT22;34357;51.948;6.132;2024-03-07T04:00:06;3.10;93.20
48579;DHT22;34357;51.948;6.132;2024-03-07T04:02:44;3.00;93.20
48579;DHT22;34357;51.948;6.132;2024-03-07T04:05:13;3.00;93.20
48579;DHT22;34357;51.948;6.132;2024-03-07T04:07:40;3.00;93.20
48579;DHT22;34357;51.948;6.132;2024-03-07T04:10:07;3.00;93.30
48579;DHT22;34357;51.948;6.132;2024-03-07T04:12:34;2.90;93.30
48579;DHT22;34357;51.948;6.132;2024-03-07T04:15:01;2.90;93.30
48579;DHT22;34357;51.948;6.132;2024-03-07T04:17:27;2.90;93.30
48579;DHT22;34357;51.948;6.132;2024-03-07T04:19:52;2.90;93.40
48579;DHT22;34357;51.948;6.132;2024-03-07T04:22:18;2.90;93.40
48579;DHT22;34357;51.948;6.132;2024-03-07T04:24:45;2.90;93.40
48579;DHT22;34357;51.948;6.132;2024-03-07T04:27:11;2.90;93.50
48579;DHT22;34357;51.948;6.132;2024-03-07T04:29:37;2.80;93.50
48579;DHT22;34357;51.948;6.132;2024-03-07T04:32:03;2.80;93.50
48579;DHT22;34357;51.948;6.132;2024-03-07T04:34:30;2.80;93.50
48579;DHT22;34357;51.948;6.132;2024-03-07T04:37:00;2.70;93.50
48579;DHT22;34357;51.948;6.132;2024-03-07T04:39:29;2.70;93.50
48579;DHT22;34357;51.948;6.132;2024-03-07T04:41:59;2.70;93.60
48579;DHT22;34357;51.948;6.132;2024-03-07T04:44:31;2.60;93.50
48579;DHT22;34357;51.948;6.132;2024-03-07T04:46:59;2.60;93.50
48579;DHT22;34357;51.948;6.132;2024-03-07T04:49:27;2.60;93.60
48579;DHT22;34357;51.948;6.132;2024-03-07T04:51:57;2.60;93.60
48579;DHT22;34357;51.948;6.132;2024-03-07T04:54:24;2.60;93.60
48579;DHT22;34357;51.948;6.132;2024-03-07T04:56:51;2.60;93.60
48579;DHT22;34357;51.948;6.132;2024-03-07T04:59:18;2.60;93.70
48579;DHT22;34357;51.948;6.132;2024-03-07T05:01:44;2.60;93.70
48579;DHT22;34357;51.948;6.132;2024-03-07T05:04:12;2.60;93.70
48579;DHT22;34357;51.948;6.132;2024-03-07T05:06:38;2.60;93.70
48579;DHT22;34357;51.948;6.132;2024-03-07T05:09:05;2.60;93.70
48579;DHT22;34357;51.948;6.132;2024-03-07T05:11:36;2.60;93.70
48579;DHT22;34357;51.948;6.132;2024-03-07T05:14:02;2.60;93.70
48579;DHT22;34357;51.948;6.132;2024-03-07T05:16:29;2.50;93.70
48579;DHT22;34357;51.948;6.132;2024-03-07T05:18:55;2.50;93.70
48579;DHT22;34357;51.948;6.132;2024-03-07T05:21:25;2.50;93.70
48579;DHT22;34357;51.948;6.132;2024-03-07T05:24:00;2.50;93.60
48579;DHT22;34357;51.948;6.132;2024-03-07T05:26:27;2.50;93.70
48579;DHT22;34357;51.948;6.132;2024-03-07T05:28:53;2.50;93.70
48579;DHT22;34357;51.948;6.132;2024-03-07T05:31:21;2.40;93.70
48579;DHT22;34357;51.948;6.132;2024-03-07T05:33:47;2.40;93.70
48579;DHT22;34357;51.948;6.132;2024-03-07T05:36:13;2.40;93.60
48579;DHT22;34357;51.948;6.132;2024-03-07T05:38:43;2.40;93.60
48579;DHT22;34357;51.948;6.132;2024-03-07T05:41:12;2.40;93.60
48579;DHT22;34357;51.948;6.132;2024-03-07T05:43:38;2.40;93.60
48579;DHT22;34357;51.948;6.132;2024-03-07T05:46:04;2.40;93.60
48579;DHT22;34357;51.948;6.132;2024-03-07T05:48:32;2.30;93.60
48579;DHT22;34357;51.948;6.132;2024-03-07T05:50:59;2.30;93.60
48579;DHT22;34357;51.948;6.132;2024-03-07T05:53:25;2.30;93.60
48579;DHT22;34357;51.948;6.132;2024-03-07T05:55:51;2.30;93.60
48579;DHT22;34357;51.948;6.132;2024-03-07T05:58:17;2.30;93.60
48579;DHT22;34357;51.948;6.132;2024-03-07T06:00:49;2.30;93.60
48579;DHT22;34357;51.948;6.132;2024-03-07T06:03:18;2.20;93.50
48579;DHT22;34357;51.948;6.132;2024-03-07T06:05:47;2.20;93.50
48579;DHT22;34357;51.948;6.132;2024-03-07T06:08:20;2.20;93.50
48579;DHT22;34357;51.948;6.132;2024-03-07T06:10:47;2.20;93.50
48579;DHT22;34357;51.948;6.132;2024-03-07T06:13:15;2.20;93.50
48579;DHT22;34357;51.948;6.132;2024-03-07T06:15:44;2.20;93.40
48579;DHT22;34357;51.948;6.132;2024-03-07T06:18:10;2.10;93.50
48579;DHT22;34357;51.948;6.132;2024-03-07T06:20:36;2.10;93.50
48579;DHT22;34357;51.948;6.132;2024-03-07T06:23:03;2.10;93.50
48579;DHT22;34357;51.948;6.132;2024-03-07T06:25:32;2.10;93.50
48579;DHT22;34357;51.948;6.132;2024-03-07T06:28:17;2.20;93.50
48579;DHT22;34357;51.948;6.132;2024-03-07T06:30:45;2.20;93.40
48579;DHT22;34357;51.948;6.132;2024-03-07T06:33:12;2.20;93.40
48579;DHT22;34357;51.948;6.132;2024-03-07T06:35:39;2.20;93.30
48579;DHT22;34357;51.948;6.132;2024-03-07T06:38:09;2.20;93.30
48579;DHT22;34357;51.948;6.132;2024-03-07T06:40:36;2.20;93.30
48579;DHT22;34357;51.948;6.132;2024-03-07T06:43:03;2.20;93.30
48579;DHT22;34357;51.948;6.132;2024-03-07T06:45:33;2.20;93.30
48579;DHT22;34357;51.948;6.132;2024-03-07T06:47:59;2.30;93.30
48579;DHT22;34357;51.948;6.132;2024-03-07T06:50:25;2.30;93.20
48579;DHT22;34357;51.948;6.132;2024-03-07T06:52:51;2.40;93.20
48579;DHT22;34357;51.948;6.132;2024-03-07T06:55:18;2.40;93.20
48579;DHT22;34357;51.948;6.132;2024-03-07T06:57:47;2.40;93.10
48579;DHT22;34357;51.948;6.132;2024-03-07T07:00:13;2.40;93.10
48579;DHT22;34357;51.948;6.132;2024-03-07T07:02:44;2.40;93.10
48579;DHT22;34357;51.948;6.132;2024-03-07T07:05:10;2.40;93.00
48579;DHT22;34357;51.948;6.132;2024-03-07T07:07:44;2.50;93.00
48579;DHT22;34357;51.948;6.132;2024-03-07T07:10:11;2.70;92.90
48579;DHT22;34357;51.948;6.132;2024-03-07T07:12:50;2.80;92.90
48579;DHT22;34357;51.948;6.132;2024-03-07T07:15:20;2.90;92.70
48579;DHT22;34357;51.948;6.132;2024-03-07T07:17:47;3.00;92.60
48579;DHT22;34357;51.948;6.132;2024-03-07T07:20:18;3.10;92.30
48579;DHT22;34357;51.948;6.132;2024-03-07T07:22:45;3.10;92.10
48579;DHT22;34357;51.948;6.132;2024-03-07T07:25:12;3.20;91.80
48579;DHT22;34357;51.948;6.132;2024-03-07T07:30:12;3.30;91.40
48579;DHT22;34357;51.948;6.132;2024-03-07T07:32:39;3.40;91.30
48579;DHT22;34357;51.948;6.132;2024-03-07T07:35:05;3.50;91.10
48579;DHT22;34357;51.948;6.132;2024-03-07T07:37:38;3.60;91.00
48579;DHT22;34357;51.948;6.132;2024-03-07T07:40:06;3.70;90.70
48579;DHT22;34357;51.948;6.132;2024-03-07T07:42:35;3.80;90.40
48579;DHT22;34357;51.948;6.132;2024-03-07T07:45:06;3.90;90.30
48579;DHT22;34357;51.948;6.132;2024-03-07T07:47:32;4.10;90.00
48579;DHT22;34357;51.948;6.132;2024-03-07T07:49:58;4.20;89.50
48579;DHT22;34357;51.948;6.132;2024-03-07T07:52:24;4.30;89.00
48579;DHT22;34357;51.948;6.132;2024-03-07T07:54:49;4.40;88.60
48579;DHT22;34357;51.948;6.132;2024-03-07T07:57:15;4.50;88.30
48579;DHT22;34357;51.948;6.132;2024-03-07T07:59:41;4.60;87.80
48579;DHT22;34357;51.948;6.132;2024-03-07T08:02:07;4.80;87.30
48579;DHT22;34357;51.948;6.132;2024-03-07T08:04:33;4.80;86.50
48579;DHT22;34357;51.948;6.132;2024-03-07T08:06:59;4.90;86.10
48579;DHT22;34357;51.948;6.132;2024-03-07T08:09:25;4.90;85.60
48579;DHT22;34357;51.948;6.132;2024-03-07T08:11:51;5.10;85.30
48579;DHT22;34357;51.948;6.132;2024-03-07T08:14:18;5.40;85.50
48579;DHT22;34357;51.948;6.132;2024-03-07T08:16:48;5.40;84.60
48579;DHT22;34357;51.948;6.132;2024-03-07T08:19:13;5.60;84.20
48579;DHT22;34357;51.948;6.132;2024-03-07T08:21:40;5.60;83.40
48579;DHT22;34357;51.948;6.132;2024-03-07T08:24:05;5.70;82.90
48579;DHT22;34357;51.948;6.132;2024-03-07T08:26:36;6.00;82.90
48579;DHT22;34357;51.948;6.132;2024-03-07T08:29:02;6.20;82.00
48579;DHT22;34357;51.948;6.132;2024-03-07T08:31:28;6.30;80.80
48579;DHT22;34357;51.948;6.132;2024-03-07T08:33:54;6.40;80.40
48579;DHT22;34357;51.948;6.132;2024-03-07T08:36:20;6.60;79.80
48579;DHT22;34357;51.948;6.132;2024-03-07T08:38:47;6.50;79.70
48579;DHT22;34357;51.948;6.132;2024-03-07T08:41:13;6.60;79.60
48579;DHT22;34357;51.948;6.132;2024-03-07T08:43:40;6.80;79.30
48579;DHT22;34357;51.948;6.132;2024-03-07T08:46:05;6.90;78.50
48579;DHT22;34357;51.948;6.132;2024-03-07T08:48:32;6.90;77.90
48579;DHT22;34357;51.948;6.132;2024-03-07T08:50:57;7.00;77.70
48579;DHT22;34357;51.948;6.132;2024-03-07T08:53:23;7.00;77.40
48579;DHT22;34357;51.948;6.132;2024-03-07T08:55:48;7.00;77.10
48579;DHT22;34357;51.948;6.132;2024-03-07T08:58:14;7.10;76.60
48579;DHT22;34357;51.948;6.132;2024-03-07T09:00:40;7.30;76.30
48579;DHT22;34357;51.948;6.132;2024-03-07T09:03:06;7.30;76.40
48579;DHT22;34357;51.948;6.132;2024-03-07T09:05:35;7.30;75.60
48579;DHT22;34357;51.948;6.132;2024-03-07T09:08:00;7.40;76.00
48579;DHT22;34357;51.948;6.132;2024-03-07T09:10:27;7.60;75.40
48579;DHT22;34357;51.948;6.132;2024-03-07T09:12:55;7.90;75.20
48579;DHT22;34357;51.948;6.132;2024-03-07T09:15:20;7.60;74.50
48579;DHT22;34357;51.948;6.132;2024-03-07T09:17:49;7.60;74.90
48579;DHT22;34357;51.948;6.132;2024-03-07T09:20:15;7.70;75.50
48579;DHT22;34357;51.948;6.132;2024-03-07T09:22:43;7.90;74.10
48579;DHT22;34357;51.948;6.132;2024-03-07T09:25:10;8.00;74.90
48579;DHT22;34357;51.948;6.132;2024-03-07T09:27:36;8.20;73.70
48579;DHT22;34357;51.948;6.132;2024-03-07T09:30:04;8.40;73.90
48579;DHT22;34357;51.948;6.132;2024-03-07T09:32:30;8.60;72.10
48579;DHT22;34357;51.948;6.132;2024-03-07T09:34:58;8.90;71.70
48579;DHT22;34357;51.948;6.132;2024-03-07T09:37:25;8.80;71.70
48579;DHT22;34357;51.948;6.132;2024-03-07T09:39:51;8.60;71.10
48579;DHT22;34357;51.948;6.132;2024-03-07T09:42:17;8.30;71.50
48579;DHT22;34357;51.948;6.132;2024-03-07T09:44:44;8.10;72.10
48579;DHT22;34357;51.948;6.132;2024-03-07T09:47:11;8.10;72.50
48579;DHT22;34357;51.948;6.132;2024-03-07T09:49:38;8.20;71.50
48579;DHT22;34357;51.948;6.132;2024-03-07T09:52:06;8.20;72.90
48579;DHT22;34357;51.948;6.132;2024-03-07T09:54:37;8.10;72.80
48579;DHT22;34357;51.948;6.132;2024-03-07T09:57:06;8.10;72.30
48579;DHT22;34357;51.948;6.132;2024-03-07T09:59:35;8.50;71.50
48579;DHT22;34357;51.948;6.132;2024-03-07T10:02:06;8.40;71.30
48579;DHT22;34357;51.948;6.132;2024-03-07T10:04:56;8.30;71.10
48579;DHT22;34357;51.948;6.132;2024-03-07T10:07:22;8.50;71.10
48579;DHT22;34357;51.948;6.132;2024-03-07T10:09:48;8.40;71.90
48579;DHT22;34357;51.948;6.132;2024-03-07T10:12:16;8.30;71.20
48579;DHT22;34357;51.948;6.132;2024-03-07T10:14:56;8.30;71.40
48579;DHT22;34357;51.948;6.132;2024-03-07T10:17:25;8.30;70.80
48579;DHT22;34357;51.948;6.132;2024-03-07T10:19:51;8.30;72.00
48579;DHT22;34357;51.948;6.132;2024-03-07T10:22:19;8.20;71.60
48579;DHT22;34357;51.948;6.132;2024-03-07T10:24:52;8.00;72.10
48579;DHT22;34357;51.948;6.132;2024-03-07T10:27:25;8.10;72.80
48579;DHT22;34357;51.948;6.132;2024-03-07T10:29:57;7.90;72.30
48579;DHT22;34357;51.948;6.132;2024-03-07T10:32:23;7.90;72.80
48579;DHT22;34357;51.948;6.132;2024-03-07T10:34:53;8.10;72.80
48579;DHT22;34357;51.948;6.132;2024-03-07T10:37:20;8.20;72.20
48579;DHT22;34357;51.948;6.132;2024-03-07T10:39:51;8.20;72.60
48579;DHT22;34357;51.948;6.132;2024-03-07T10:42:18;8.30;71.80
48579;DHT22;34357;51.948;6.132;2024-03-07T10:44:45;8.30;70.90
48579;DHT22;34357;51.948;6.132;2024-03-07T10:47:19;8.20;71.60
48579;DHT22;34357;51.948;6.132;2024-03-07T10:50:15;8.20;71.30
48579;DHT22;34357;51.948;6.132;2024-03-07T10:52:59;8.10;71.20
48579;DHT22;34357;51.948;6.132;2024-03-07T10:55:33;8.20;71.00
48579;DHT22;34357;51.948;6.132;2024-03-07T10:58:05;8.20;71.10
48579;DHT22;34357;51.948;6.132;2024-03-07T11:00:33;8.30;72.00
48579;DHT22;34357;51.948;6.132;2024-03-07T11:03:03;8.40;71.10
48579;DHT22;34357;51.948;6.132;2024-03-07T11:05:33;8.40;71.10
48579;DHT22;34357;51.948;6.132;2024-03-07T11:08:03;8.50;70.40
48579;DHT22;34357;51.948;6.132;2024-03-07T11:10:38;8.60;70.00
48579;DHT22;34357;51.948;6.132;2024-03-07T11:13:06;8.60;69.90
48579;DHT22;34357;51.948;6.132;2024-03-07T11:15:33;8.80;69.90
48579;DHT22;34357;51.948;6.132;2024-03-07T11:17:59;8.80;69.00
48579;DHT22;34357;51.948;6.132;2024-03-07T11:20:26;8.70;69.20
48579;DHT22;34357;51.948;6.132;2024-03-07T11:22:52;8.80;70.00
48579;DHT22;34357;51.948;6.132;2024-03-07T11:25:27;8.70;69.10
48579;DHT22;34357;51.948;6.132;2024-03-07T11:27:57;8.60;69.90
48579;DHT22;34357;51.948;6.132;2024-03-07T11:30:23;8.60;69.40
48579;DHT22;34357;51.948;6.132;2024-03-07T11:32:51;8.70;69.40
48579;DHT22;34357;51.948;6.132;2024-03-07T11:35:31;8.70;69.60
48579;DHT22;34357;51.948;6.132;2024-03-07T11:37:58;8.70;69.60
48579;DHT22;34357;51.948;6.132;2024-03-07T11:42:52;8.60;71.80
48579;DHT22;34357;51.948;6.132;2024-03-07T11:45:19;8.70;72.00
48579;DHT22;34357;51.948;6.132;2024-03-07T11:47:52;8.70;71.80
48579;DHT22;34357;51.948;6.132;2024-03-07T11:50:38;8.80;71.50
48579;DHT22;34357;51.948;6.132;2024-03-07T11:53:05;8.90;71.80
48579;DHT22;34357;51.948;6.132;2024-03-07T11:55:32;8.90;72.30
48579;DHT22;34357;51.948;6.132;2024-03-07T11:58:13;8.90;72.00
48579;DHT22;34357;51.948;6.132;2024-03-07T12:00:40;8.90;71.40
48579;DHT22;34357;51.948;6.132;2024-03-07T12:03:12;8.80;71.70
48579;DHT22;34357;51.948;6.132;2024-03-07T12:05:43;8.90;71.40
48579;DHT22;34357;51.948;6.132;2024-03-07T12:08:10;9.00;71.40
48579;DHT22;34357;51.948;6.132;2024-03-07T12:10:44;9.10;71.60
48579;DHT22;34357;51.948;6.132;2024-03-07T12:13:12;9.10;70.90
48579;DHT22;34357;51.948;6.132;2024-03-07T12:15:41;9.00;71.30
48579;DHT22;34357;51.948;6.132;2024-03-07T12:18:09;9.00;71.00
48579;DHT22;34357;51.948;6.132;2024-03-07T12:20:39;9.10;72.00
48579;DHT22;34357;51.948;6.132;2024-03-07T12:23:07;8.90;71.80
48579;DHT22;34357;51.948;6.132;2024-03-07T12:25:38;8.90;72.30
48579;DHT22;34357;51.948;6.132;2024-03-07T12:28:14;8.80;72.60
48579;DHT22;34357;51.948;6.132;2024-03-07T12:33:11;9.20;73.10
48579;DHT22;34357;51.948;6.132;2024-03-07T12:35:40;9.30;72.60
48579;DHT22;34357;51.948;6.132;2024-03-07T12:38:10;9.10;72.60
48579;DHT22;34357;51.948;6.132;2024-03-07T12:40:44;9.00;73.10
48579;DHT22;34357;51.948;6.132;2024-03-07T12:43:21;9.20;73.10
48579;DHT22;34357;51.948;6.132;2024-03-07T12:45:53;9.20;72.70
48579;DHT22;34357;51.948;6.132;2024-03-07T12:48:20;9.30;72.70
48579;DHT22;34357;51.948;6.132;2024-03-07T12:50:50;9.30;72.80
48579;DHT22;34357;51.948;6.132;2024-03-07T12:53:25;9.30;72.90
48579;DHT22;34357;51.948;6.132;2024-03-07T12:55:51;9.40;72.90
48579;DHT22;34357;51.948;6.132;2024-03-07T12:58:18;9.30;73.40
48579;DHT22;34357;51.948;6.132;2024-03-07T13:00:45;9.30;73.90
48579;DHT22;34357;51.948;6.132;2024-03-07T13:03:12;9.50;74.40
48579;DHT22;34357;51.948;6.132;2024-03-07T13:05:40;9.60;73.50
48579;DHT22;34357;51.948;6.132;2024-03-07T13:08:11;9.50;72.90
48579;DHT22;34357;51.948;6.132;2024-03-07T13:10:46;9.50;73.80
48579;DHT22;34357;51.948;6.132;2024-03-07T13:13:12;9.60;73.10
48579;DHT22;34357;51.948;6.132;2024-03-07T13:15:38;9.60;73.30
48579;DHT22;34357;51.948;6.132;2024-03-07T13:18:08;9.50;73.00
48579;DHT22;34357;51.948;6.132;2024-03-07T13:20:35;9.60;73.20
48579;DHT22;34357;51.948;6.132;2024-03-07T13:23:02;9.50;73.30
48579;DHT22;34357;51.948;6.132;2024-03-07T13:25:29;9.40;73.90
48579;DHT22;34357;51.948;6.132;2024-03-07T13:28:10;9.10;73.50
48579;DHT22;34357;51.948;6.132;2024-03-07T13:30:42;8.90;74.30
48579;DHT22;34357;51.948;6.132;2024-03-07T13:33:09;8.80;74.80
48579;DHT22;34357;51.948;6.132;2024-03-07T13:35:39;8.80;75.60
48579;DHT22;34357;51.948;6.132;2024-03-07T13:38:06;9.00;75.30
48579;DHT22;34357;51.948;6.132;2024-03-07T13:40:32;9.00;75.60
48579;DHT22;34357;51.948;6.132;2024-03-07T13:43:00;8.90;75.00
48579;DHT22;34357;51.948;6.132;2024-03-07T13:45:29;9.00;75.00
48579;DHT22;34357;51.948;6.132;2024-03-07T13:47:57;8.80;75.60
48579;DHT22;34357;51.948;6.132;2024-03-07T13:50:28;8.90;75.50
48579;DHT22;34357;51.948;6.132;2024-03-07T13:52:55;8.90;75.40
48579;DHT22;34357;51.948;6.132;2024-03-07T14:09:41;8.70;75.50
48579;DHT22;34357;51.948;6.132;2024-03-07T14:29:46;8.80;75.90
48579;DHT22;34357;51.948;6.132;2024-03-07T14:32:13;8.80;75.20
48579;DHT22;34357;51.948;6.132;2024-03-07T14:37:21;8.70;75.10
48579;DHT22;34357;51.948;6.132;2024-03-07T14:39:50;8.80;75.20
48579;DHT22;34357;51.948;6.132;2024-03-07T14:42:16;8.70;75.30
48579;DHT22;34357;51.948;6.132;2024-03-07T14:44:43;8.70;75.50
48579;DHT22;34357;51.948;6.132;2024-03-07T14:47:12;8.60;75.50
48579;DHT22;34357;51.948;6.132;2024-03-07T14:49:40;8.60;75.90
48579;DHT22;34357;51.948;6.132;2024-03-07T14:52:07;8.60;75.60
48579;DHT22;34357;51.948;6.132;2024-03-07T14:54:39;8.60;76.00
48579;DHT22;34357;51.948;6.132;2024-03-07T14:57:07;8.40;76.20
48579;DHT22;34357;51.948;6.132;2024-03-07T14:59:36;8.40;76.50
48579;DHT22;34357;51.948;6.132;2024-03-07T15:02:02;8.40;76.30
48579;DHT22;34357;51.948;6.132;2024-03-07T15:04:31;8.30;76.60
48579;DHT22;34357;51.948;6.132;2024-03-07T15:06:58;8.40;76.80
48579;DHT22;34357;51.948;6.132;2024-03-07T15:09:25;8.50;77.00
48579;DHT22;34357;51.948;6.132;2024-03-07T15:11:55;8.70;76.50
48579;DHT22;34357;51.948;6.132;2024-03-07T15:14:22;8.80;76.40
48579;DHT22;34357;51.948;6.132;2024-03-07T15:16:47;8.70;76.50
48579;DHT22;34357;51.948;6.132;2024-03-07T15:19:15;8.80;76.50
48579;DHT22;34357;51.948;6.132;2024-03-07T15:21:41;8.70;76.50
48579;DHT22;34357;51.948;6.132;2024-03-07T15:24:07;8.40;77.10
48579;DHT22;34357;51.948;6.132;2024-03-07T15:26:32;8.30;77.20
48579;DHT22;34357;51.948;6.132;2024-03-07T15:28:59;8.10;77.70
48579;DHT22;34357;51.948;6.132;2024-03-07T15:31:26;8.00;78.40
48579;DHT22;34357;51.948;6.132;2024-03-07T15:33:52;8.00;78.40
48579;DHT22;34357;51.948;6.132;2024-03-07T15:36:18;8.00;78.00
48579;DHT22;34357;51.948;6.132;2024-03-07T15:38:45;8.00;78.20
48579;DHT22;34357;51.948;6.132;2024-03-07T15:41:11;8.10;78.30
48579;DHT22;34357;51.948;6.132;2024-03-07T15:43:41;8.20;77.60
48579;DHT22;34357;51.948;6.132;2024-03-07T15:46:08;8.30;77.50
48579;DHT22;34357;51.948;6.132;2024-03-07T15:48:37;8.50;76.90
48579;DHT22;34357;51.948;6.132;2024-03-07T15:51:03;8.60;76.60
48579;DHT22;34357;51.948;6.132;2024-03-07T15:53:30;8.70;75.80
48579;DHT22;34357;51.948;6.132;2024-03-07T15:56:00;8.70;76.10
48579;DHT22;34357;51.948;6.132;2024-03-07T15:58:26;8.70;75.30
48579;DHT22;34357;51.948;6.132;2024-03-07T16:00:51;8.70;74.60
48579;DHT22;34357;51.948;6.132;2024-03-07T16:03:18;8.60;74.30
48579;DHT22;34357;51.948;6.132;2024-03-07T16:05:44;8.60;74.00
48579;DHT22;34357;51.948;6.132;2024-03-07T16:08:11;8.50;73.80
48579;DHT22;34357;51.948;6.132;2024-03-07T16:10:40;8.50;74.00
48579;DHT22;34357;51.948;6.132;2024-03-07T16:13:07;8.40;74.90
48579;DHT22;34357;51.948;6.132;2024-03-07T16:15:37;8.20;76.20
48579;DHT22;34357;51.948;6.132;2024-03-07T16:18:03;8.10;76.80
48579;DHT22;34357;51.948;6.132;2024-03-07T16:20:32;8.00;77.50
48579;DHT22;34357;51.948;6.132;2024-03-07T16:23:01;7.90;78.00
48579;DHT22;34357;51.948;6.132;2024-03-07T16:25:31;7.80;78.50
48579;DHT22;34357;51.948;6.132;2024-03-07T16:27:57;7.70;79.00
48579;DHT22;34357;51.948;6.132;2024-03-07T16:30:25;7.70;79.00